Home   Weather   India   Shirdi   Past weeks
Flag for India

Past Weather in Shirdi, Maharashtra, India — Yesterday and Last 2 Weeks

Currently: 99 °F. Clear. (Weather station: Mumbai / Santacruz, India). See more current weather

Past Weather in Shirdi — Graph

°F

Shirdi Temperature Yesterday

Maximum temperature yesterday: 99 °F (at 11:30 am)
Minimum temperature yesterday: 82 °F (at 12:30 am)
Average temperature yesterday: 90 °F

High & Low Weather Summary for the Past Weeks

 TemperatureHumidityPressure
High104 °F (Apr 16, 12:00 pm)89% (Apr 5, 6:30 am)29.92 "Hg (Apr 5, 6:30 am)
Low79 °F (Apr 2, 5:30 am)18% (Apr 7, 3:00 pm)29.68 "Hg (Apr 6, 3:30 pm)
Average86 °F64%29.80 "Hg
* Reported Apr 1 2:30 pm — Apr 16 2:30 pm, Shirdi. Weather by CustomWeather, © 2024

Note: Actual official high and low records may vary slightly from our data, if they occured in-between our weather recording intervals... More about our weather records

Shirdi Weather History for the Previous 24 Hours

Scroll right to see more
 ConditionsComfort  
Time TempWeatherWind HumidityBarometerVisibility
2:30 pm
Tue, Apr 16
100 °FPassing clouds.13 mph40%29.71 "Hg2 mi
2:00 pm102 °FPassing clouds.14 mph31%29.74 "Hg2 mi
1:30 pm100 °FPassing clouds.14 mph35%29.74 "Hg2 mi
1:00 pm102 °FPassing clouds.9 mph37%29.77 "Hg2 mi
12:30 pm100 °FPassing clouds.12 mph42%29.77 "Hg2 mi
12:00 pm104 °FPassing clouds.8 mph26%29.80 "Hg2 mi
11:30 am100 °FPassing clouds.5 mph35%29.80 "Hg2 mi
11:00 am99 °FPassing clouds.5 mph39%29.80 "Hg2 mi
10:30 am97 °FPassing clouds.7 mph44%29.80 "Hg1 mi
10:00 am97 °FPassing clouds.5 mph42%29.80 "Hg1 mi
9:30 am93 °FPassing clouds.3 mph47%29.80 "Hg1 mi
9:00 am91 °FPassing clouds.No wind52%29.80 "Hg1 mi
8:30 am91 °FHaze.3 mph56%29.80 "Hg1 mi
8:00 am90 °FHaze.3 mph63%29.80 "Hg1 mi
5:00 am88 °FHaze.6 mph66%29.77 "Hg2 mi
4:30 am88 °FHaze.3 mph66%29.77 "Hg2 mi
4:00 am88 °FHaze.3 mph70%29.77 "Hg2 mi
3:30 am88 °FHaze.6 mph70%29.77 "Hg2 mi
3:00 am88 °FHaze.7 mph70%29.77 "Hg2 mi
2:30 am88 °FHaze.9 mph70%29.80 "Hg2 mi
2:00 am88 °FHaze.7 mph75%29.80 "Hg2 mi
1:30 am86 °FHaze.6 mph79%29.80 "Hg2 mi
1:00 am88 °FHaze.8 mph79%29.80 "Hg2 mi
12:30 am86 °FHaze.8 mph84%29.80 "Hg2 mi
12:00 am88 °FHaze.12 mph84%29.83 "Hg2 mi
11:30 pm
Mon, Apr 15
91 °FHaze.8 mph63%29.83 "Hg2 mi
11:00 pm91 °FPassing clouds.5 mph59%29.83 "Hg2 mi
10:30 pm91 °FPassing clouds.7 mph59%29.83 "Hg2 mi
10:00 pm91 °FPassing clouds.5 mph59%29.83 "Hg2 mi
9:30 pm91 °FPassing clouds.5 mph56%29.83 "Hg2 mi
9:00 pm93 °FPassing clouds.6 mph53%29.83 "Hg2 mi
8:30 pm93 °FPassing clouds.No wind49%29.80 "Hg2 mi
8:00 pm93 °FPassing clouds.6 mph49%29.80 "Hg2 mi
7:30 pm93 °FPassing clouds.8 mph53%29.77 "Hg2 mi
7:00 pm93 °FPassing clouds.8 mph53%29.77 "Hg2 mi
6:30 pm93 °FPassing clouds.8 mph56%29.74 "Hg2 mi
6:00 pm93 °FPassing clouds.13 mph53%29.74 "Hg2 mi
5:30 pm95 °FPassing clouds.13 mph53%29.71 "Hg2 mi
5:00 pm95 °FPassing clouds.7 mph56%29.71 "Hg2 mi
4:30 pm93 °FPassing clouds.10 mph59%29.74 "Hg2 mi
4:00 pm97 °FPassing clouds.13 mph53%29.71 "Hg2 mi
3:30 pm95 °FClear.12 mph56%29.74 "Hg2 mi
3:00 pm93 °FClear.12 mph56%29.74 "Hg2 mi
Weather by CustomWeather, © 2024

See weather overview